This is the latest recevied weather packets stored in our database for station/object OH2HCY. If no packets are shown the sender has not sent any weather packets the latest 1 day(s).
| Time | Temp. | Humidity | Pressure | Rain* | Wind** | Luminosity | Snow |
|---|---|---|---|---|---|---|---|
| 1778007260 | 6.67° C | 45% | 1004.9 hPa | - | 2.68 m/s, 261° | - | - |
| 1778006760 | 6.67° C | 45% | 1004.8 hPa | - | 2.68 m/s, 258° | - | - |
| 1778006225 | 7.22° C | 44% | 1004.6 hPa | - | 2.68 m/s, 257° | - | - |
| 1778005695 | 7.22° C | 43% | 1004.4 hPa | - | 2.68 m/s, 267° | - | - |
| 1778005150 | 7.78° C | 42% | 1004.1 hPa | - | 2.68 m/s, 264° | - | - |
| 1778004610 | 7.78° C | 42% | 1003.9 hPa | - | 3.13 m/s, 263° | - | - |
| 1778004090 | 8.33° C | 42% | 1003.7 hPa | - | 2.68 m/s, 267° | - | - |
| 1778003590 | 8.33° C | 41% | 1003.6 hPa | - | 3.13 m/s, 273° | - | - |
| 1778003070 | 8.33° C | 40% | 1003.4 hPa | - | 3.58 m/s, 260° | - | - |
| 1778002565 | 8.33° C | 40% | 1003.3 hPa | - | 4.02 m/s, 262° | - | - |
| 1778002010 | 8.89° C | 39% | 1003.1 hPa | - | 2.68 m/s, 267° | - | - |
| 1778001495 | 8.89° C | 40% | 1003 hPa | - | 3.58 m/s, 265° | - | - |
| 1778000950 | 9.44° C | 39% | 1002.9 hPa | - | 2.24 m/s, 262° | - | - |
| 1778000425 | 9.44° C | 39% | 1002.9 hPa | - | 2.68 m/s, 259° | - | - |
| 1777999880 | 8.89° C | 38% | 1002.8 hPa | - | 4.02 m/s, 269° | - | - |
| 1777999317 | 10° C | 36% | 1002.5 hPa | - | 3.58 m/s, 276° | - | - |
| 1777998775 | 10° C | 34% | 1002.4 hPa | - | 4.02 m/s, 276° | - | - |
| 1777998249 | 10° C | 33% | 1002.2 hPa | - | 3.13 m/s, 276° | - | - |
| 1777997730 | 10.56° C | 32% | 1002.1 hPa | - | 3.13 m/s, 264° | - | - |
| 1777997185 | 10° C | 35% | 1002.1 hPa | - | 4.47 m/s, 259° | - | - |
| 1777996651 | 10.56° C | 33% | 1001.9 hPa | - | 4.02 m/s, 264° | - | - |
| 1777996110 | 10.56° C | 31% | 1001.7 hPa | - | 3.13 m/s, 273° | - | - |
| 1777995555 | 10.56° C | 32% | 1001.7 hPa | - | 4.47 m/s, 262° | - | - |
| 1777995003 | 10.56° C | 33% | 1001.5 hPa | - | 4.47 m/s, 258° | - | - |
| 1777994470 | 11.11° C | 32% | 1001.3 hPa | - | 3.58 m/s, 272° | - | - |
* Rain since midnight (hover to see other rain measurements)
** Current wind speed in m/s (hover to see current wind gust speed)